Time;durP1;ratioP1;P1;durP2;ratioP2;P2;SDS_P1;SDS_P2;PMS_P1;PMS_P2;Temp;Humidity;BMP_temperature;BMP_pressure;BME280_temperature;BME280_humidity;BME280_pressure;Samples;Min_cycle;Max_cycle;Signal;HPM_P1;HPM_P2
2023/05/26 04:04:55;;;;;;;16.50;13.25;;;;;;;18.09;81.97;100748.72;5606471;31;81124;-59
2023/05/26 04:07:58;;;;;;;17.90;13.30;;;;;;;18.09;81.97;100748.72;5583957;31;33454;-59
2023/05/26 04:11:01;;;;;;;18.58;13.85;;;;;;;17.61;83.82;100755.91;5586254;31;34385;-59
2023/05/26 04:14:06;;;;;;;16.92;13.38;;;;;;;17.64;83.62;100753.66;5583475;31;33414;-59
2023/05/26 04:17:08;;;;;;;18.35;13.68;;;;;;;17.66;84.22;100757.62;5583747;31;34277;-59
2023/05/26 04:20:11;;;;;;;15.95;13.55;;;;;;;17.75;83.83;100763.88;5583656;31;33627;-59
2023/05/26 04:23:13;;;;;;;19.58;13.02;;;;;;;17.85;83.05;100770.91;5599883;31;33205;-59
2023/05/26 04:26:17;;;;;;;17.50;13.35;;;;;;;17.89;83.15;100780.00;5603585;31;33250;-59
2023/05/26 04:29:21;;;;;;;17.23;13.10;;;;;;;17.95;86.22;100781.44;5603493;31;33907;-59
2023/05/26 04:32:25;;;;;;;18.27;12.73;;;;;;;17.97;83.59;100773.75;5599142;31;32329;-59
2023/05/26 04:35:30;;;;;;;23.90;13.35;;;;;;;18.10;81.97;100774.72;5589422;31;33011;-59
2023/05/26 04:38:32;;;;;;;18.23;14.00;;;;;;;18.06;83.13;100773.78;5590437;31;33353;-59
2023/05/26 04:41:35;;;;;;;19.67;13.07;;;;;;;18.05;81.55;100780.31;5591883;31;33627;-59
2023/05/26 04:44:40;;;;;;;18.85;12.73;;;;;;;18.13;81.70;100782.22;5592579;31;34565;-59
2023/05/26 04:47:42;;;;;;;19.98;13.20;;;;;;;18.12;83.35;100777.91;5573001;31;33909;-59
2023/05/26 04:50:45;;;;;;;17.08;13.73;;;;;;;18.15;83.68;100771.06;5578315;31;34507;-59
2023/05/26 04:53:48;;;;;;;18.92;13.75;;;;;;;18.27;81.52;100766.53;5580187;32;33139;-59
2023/05/26 04:56:52;;;;;;;20.75;13.57;;;;;;;18.37;81.28;100772.75;5583530;31;33539;-59
2023/05/26 04:59:55;;;;;;;17.90;13.00;;;;;;;18.40;81.06;100777.53;5582828;31;32459;-59
2023/05/26 05:02:58;;;;;;;17.77;12.93;;;;;;;18.59;80.06;100777.97;5582278;31;33667;-59
2023/05/26 05:06:01;;;;;;;16.65;12.73;;;;;;;18.62;80.40;100771.91;5578508;32;34347;-59
2023/05/26 05:09:04;;;;;;;13.48;12.07;;;;;;;18.60;80.65;100779.56;5563594;32;34311;-59
2023/05/26 05:12:07;;;;;;;16.35;12.73;;;;;;;18.58;81.36;100779.09;5576191;32;33677;-59
2023/05/26 05:15:10;;;;;;;17.30;12.00;;;;;;;18.70;81.44;100792.78;5562767;32;33342;-59
2023/05/26 05:18:13;;;;;;;14.50;11.80;;;;;;;18.87;80.93;100777.56;5563421;31;34577;-59
2023/05/26 05:21:16;;;;;;;16.52;10.75;;;;;;;19.06;79.36;100783.41;5570000;32;33707;-59
2023/05/26 05:24:18;;;;;;;18.35;12.35;;;;;;;19.22;86.86;100781.72;5569568;31;33352;-59
2023/05/26 05:27:21;;;;;;;17.73;12.20;;;;;;;19.37;80.39;100788.53;5570020;31;33681;-59
2023/05/26 05:30:23;;;;;;;17.35;12.90;;;;;;;19.52;78.74;100787.13;5569712;32;33165;-59
2023/05/26 05:33:27;;;;;;;17.77;13.15;;;;;;;19.71;76.54;100779.34;5569958;32;34426;-59
2023/05/26 05:36:31;;;;;;;23.25;12.77;;;;;;;19.79;76.35;100782.31;5569301;32;34219;-59
2023/05/26 05:39:34;;;;;;;25.48;13.43;;;;;;;19.98;79.61;100787.31;5569602;31;32267;-59
2023/05/26 05:42:37;;;;;;;15.80;11.77;;;;;;;20.18;78.69;100789.19;5569284;31;33340;-59
2023/05/26 05:45:39;;;;;;;22.90;13.05;;;;;;;20.28;78.21;100786.06;5569348;32;33540;-59
2023/05/26 05:48:43;;;;;;;21.65;12.32;;;;;;;20.41;76.67;100790.41;5569509;31;34353;-59
2023/05/26 05:51:48;;;;;;;13.38;9.45;;;;;;;20.48;72.51;100787.13;5568750;31;33223;-59
2023/05/26 05:54:51;;;;;;;21.52;9.18;;;;;;;20.64;70.02;100796.28;5569931;32;33673;-59
2023/05/26 05:57:54;;;;;;;13.18;9.32;;;;;;;20.77;71.58;100790.84;5552476;32;33586;-59
2023/05/26 06:00:57;;;;;;;20.08;9.43;;;;;;;20.88;66.50;100800.94;5561899;32;33176;-59
2023/05/26 06:04:00;;;;;;;28.45;10.30;;;;;;;20.97;68.62;100800.84;5562431;32;33335;-59
2023/05/26 06:07:05;;;;;;;14.63;9.17;;;;;;;21.06;65.63;100803.47;5568584;32;34725;-60
2023/05/26 06:10:08;;;;;;;18.42;9.32;;;;;;;21.17;66.56;100809.25;5566308;32;33854;-59
2023/05/26 06:13:11;;;;;;;12.13;9.40;;;;;;;21.29;66.07;100817.41;5563228;32;33418;-59
2023/05/26 06:16:13;;;;;;;11.75;9.60;;;;;;;21.33;64.10;100807.44;5565617;32;33637;-59
2023/05/26 06:19:16;;;;;;;11.10;8.98;;;;;;;21.41;63.20;100816.66;5569329;32;34375;-59
2023/05/26 06:22:19;;;;;;;18.00;9.82;;;;;;;21.46;62.95;100819.16;5567733;31;32973;-59
2023/05/26 06:25:23;;;;;;;14.25;8.68;;;;;;;21.40;62.47;100817.81;5549360;32;33386;-59
2023/05/26 06:28:26;;;;;;;14.00;9.63;;;;;;;21.43;61.56;100815.19;5548949;32;33514;-59
2023/05/26 06:31:28;;;;;;;12.48;9.45;;;;;;;21.53;62.46;100811.97;5549366;32;33792;-59
2023/05/26 06:34:31;;;;;;;19.30;9.52;;;;;;;21.57;63.03;100815.59;5548819;32;31941;-60
2023/05/26 06:37:33;;;;;;;65.28;27.73;;;;;;;21.59;62.90;100809.81;5549488;32;33408;-60
2023/05/26 06:40:36;;;;;;;13.93;10.55;;;;;;;21.71;62.25;100817.97;5556522;32;33629;-59
2023/05/26 06:43:39;;;;;;;21.83;10.85;;;;;;;21.78;59.66;100809.97;5560021;32;33608;-59
2023/05/26 06:46:41;;;;;;;11.93;9.35;;;;;;;21.84;61.39;100813.28;5567459;31;33648;-59
2023/05/26 06:49:44;;;;;;;12.82;9.07;;;;;;;21.95;62.13;100810.84;5567508;32;33423;-59
2023/05/26 06:52:46;;;;;;;16.77;10.32;;;;;;;22.05;58.67;100816.63;5564816;31;34406;-59
2023/05/26 06:55:50;;;;;;;17.23;9.50;;;;;;;22.14;59.17;100816.47;5568099;32;33537;-59
2023/05/26 06:58:53;;;;;;;13.35;8.68;;;;;;;22.16;58.21;100822.41;5556608;32;33277;-59
2023/05/26 07:01:56;;;;;;;16.17;9.70;;;;;;;22.12;57.53;100815.22;5555113;32;33432;-58
2023/05/26 07:04:59;;;;;;;67.15;18.27;;;;;;;22.18;57.85;100822.84;5568319;32;34951;-59
2023/05/26 07:08:01;;;;;;;15.18;9.13;;;;;;;22.20;58.91;100817.03;5567667;31;33282;-59
2023/05/26 07:11:05;;;;;;;12.02;9.05;;;;;;;22.26;56.58;100824.63;5568397;32;34009;-59
2023/05/26 07:14:07;;;;;;;12.73;9.73;;;;;;;22.34;55.95;100822.88;5566017;31;33344;-60
2023/05/26 07:17:09;;;;;;;13.55;9.82;;;;;;;22.51;58.25;100829.97;5568525;32;33380;-59
2023/05/26 07:20:13;;;;;;;16.62;9.07;;;;;;;22.50;55.87;100829.19;5568129;31;34828;-59
2023/05/26 07:23:15;;;;;;;11.10;8.07;;;;;;;22.51;54.51;100827.22;5568578;32;33592;-59
2023/05/26 07:26:17;;;;;;;13.32;9.20;;;;;;;22.62;56.10;100825.59;5568825;32;33589;-59
2023/05/26 07:29:21;;;;;;;15.00;8.82;;;;;;;22.62;55.01;100820.13;5567914;32;33401;-60
2023/05/26 07:32:23;;;;;;;15.90;9.40;;;;;;;22.69;52.96;100825.78;5567954;32;34288;-60
2023/05/26 07:35:26;;;;;;;11.30;8.02;;;;;;;22.66;54.30;100831.94;5562659;32;33666;-59
2023/05/26 07:38:29;;;;;;;22.83;9.27;;;;;;;22.71;55.01;100828.97;5558867;32;34535;-59
2023/05/26 07:41:31;;;;;;;10.68;7.93;;;;;;;22.79;55.22;100831.88;5568258;32;34366;-60
2023/05/26 07:44:33;;;;;;;12.82;8.45;;;;;;;22.84;53.92;100820.66;5566702;32;34271;-60
2023/05/26 07:47:36;;;;;;;10.52;8.73;;;;;;;22.95;55.71;100827.22;5567407;32;33730;-59
2023/05/26 07:50:38;;;;;;;10.52;8.30;;;;;;;23.03;53.54;100828.97;5568540;32;33606;-60
2023/05/26 07:53:41;;;;;;;11.68;8.80;;;;;;;23.02;53.99;100830.13;5563285;32;34356;-59
2023/05/26 07:56:43;;;;;;;12.85;8.75;;;;;;;23.11;53.37;100816.25;5551613;32;33370;-59
2023/05/26 07:59:45;;;;;;;13.05;9.05;;;;;;;23.08;54.05;100819.69;5557054;32;34324;-59
2023/05/26 08:02:48;;;;;;;10.77;8.43;;;;;;;23.03;53.59;100815.31;5567767;32;34301;-59
2023/05/26 08:05:50;;;;;;;11.88;8.95;;;;;;;23.16;52.86;100826.94;5558863;32;33434;-59
2023/05/26 08:08:53;;;;;;;13.85;8.75;;;;;;;23.15;51.77;100833.56;5556964;32;33184;-57
2023/05/26 08:11:56;;;;;;;14.10;8.80;;;;;;;23.11;52.51;100832.66;5563618;32;33597;-57
2023/05/26 08:14:58;;;;;;;14.68;9.23;;;;;;;23.17;51.91;100825.78;5567977;32;34232;-57
2023/05/26 08:18:00;;;;;;;10.13;8.32;;;;;;;23.11;53.37;100829.94;5567854;32;33662;-57
2023/05/26 08:21:03;;;;;;;11.63;9.20;;;;;;;23.17;52.80;100826.56;5567804;32;34430;-57
2023/05/26 08:24:05;;;;;;;12.45;8.82;;;;;;;23.26;52.39;100831.88;5566916;32;34237;-57
2023/05/26 08:27:08;;;;;;;12.85;9.73;;;;;;;23.30;52.30;100827.28;5567027;32;34261;-57
2023/05/26 08:30:11;;;;;;;12.15;8.90;;;;;;;23.24;53.50;100823.22;5562452;32;33635;-57
2023/05/26 08:33:14;;;;;;;13.45;9.20;;;;;;;23.33;51.13;100821.09;5565639;32;33286;-57
2023/05/26 08:36:16;;;;;;;18.77;9.60;;;;;;;23.31;52.86;100817.94;5557982;32;33546;-57
2023/05/26 08:39:20;;;;;;;13.13;9.00;;;;;;;23.34;51.04;100816.41;5562777;32;34384;-57
2023/05/26 08:42:29;;;;;;;11.88;9.38;;;;;;;23.33;53.56;100815.63;5565300;32;33399;-57
2023/05/26 08:45:37;;;;;;;12.00;9.07;;;;;;;23.31;52.36;100817.13;5566594;32;34378;-57
2023/05/26 08:48:41;;;;;;;11.68;9.02;;;;;;;23.35;52.47;100829.75;5563927;32;33672;-57
2023/05/26 08:52:07;;;;;;;12.40;9.00;;;;;;;23.41;50.89;100822.03;5564140;32;33666;-57
2023/05/26 08:55:11;;;;;;;15.10;9.27;;;;;;;23.40;52.03;100818.50;5551003;32;33763;-57
2023/05/26 08:58:14;;;;;;;29.00;9.10;;;;;;;23.38;51.22;100817.31;5559396;32;33652;-57
2023/05/26 09:01:17;;;;;;;13.77;8.80;;;;;;;23.36;54.24;100817.66;5563018;32;33657;-57
2023/05/26 09:04:19;;;;;;;16.25;9.02;;;;;;;23.39;52.55;100819.66;5557340;32;33570;-57
2023/05/26 09:07:22;;;;;;;16.95;9.25;;;;;;;23.49;54.01;100809.34;5566454;32;34348;-60
2023/05/26 09:10:32;;;;;;;30.73;9.77;;;;;;;23.44;52.59;100810.37;5568639;32;33796;-57
2023/05/26 09:13:39;;;;;;;15.63;9.15;;;;;;;23.59;53.18;100811.50;5558344;32;34347;-57
2023/05/26 09:16:42;;;;;;;17.00;9.90;;;;;;;23.49;52.82;100810.13;5556355;32;34241;-57
2023/05/26 09:19:46;;;;;;;15.02;9.40;;;;;;;23.66;52.03;100808.91;5560739;32;34545;-57
2023/05/26 09:22:48;;;;;;;12.57;9.38;;;;;;;23.59;51.23;100811.50;5560811;32;34105;-57
2023/05/26 09:25:52;;;;;;;12.43;9.20;;;;;;;23.66;51.73;100811.66;5568446;32;33624;-58
2023/05/26 09:28:54;;;;;;;27.00;13.05;;;;;;;23.67;52.49;100816.78;5561718;32;33607;-57
2023/05/26 09:31:58;;;;;;;10.88;9.68;;;;;;;23.70;51.91;100806.28;5561825;32;34433;-57
2023/05/26 09:35:03;;;;;;;13.13;9.32;;;;;;;23.58;51.03;100809.94;5562500;32;33901;-57
2023/05/26 09:38:08;;;;;;;15.32;9.45;;;;;;;23.71;51.46;100807.84;5553728;32;33607;-57
2023/05/26 09:41:11;;;;;;;28.95;10.13;;;;;;;23.65;53.10;100810.88;5560839;32;34047;-58
2023/05/26 09:44:18;;;;;;;196.90;18.67;;;;;;;23.69;53.17;100810.97;5564102;32;34274;-57
2023/05/26 09:47:21;;;;;;;28.58;10.43;;;;;;;23.68;50.66;100807.44;5566187;32;33203;-57
2023/05/26 09:50:24;;;;;;;13.20;9.32;;;;;;;23.70;50.51;100807.06;5563967;32;33216;-57
2023/05/26 09:53:27;;;;;;;10.38;8.55;;;;;;;23.80;49.66;100797.50;5568297;32;33705;-57
2023/05/26 09:56:34;;;;;;;14.63;8.90;;;;;;;23.77;49.23;100801.75;5566989;32;34412;-57
2023/05/26 09:59:41;;;;;;;12.02;8.85;;;;;;;23.75;49.74;100800.53;5568306;32;33740;-57
2023/05/26 10:02:47;;;;;;;13.20;9.43;;;;;;;23.80;49.15;100795.56;5564515;32;33676;-58
2023/05/26 10:05:51;;;;;;;;;;;;;;;23.84;49.66;100796.44;5549904;32;32465;-57
2023/05/26 10:08:56;;;;;;;14.38;8.88;;;;;;;23.80;50.60;100798.28;5567209;32;34570;-58
2023/05/26 10:12:01;;;;;;;11.57;8.70;;;;;;;23.98;48.14;100795.12;5567414;32;33621;-57
2023/05/26 10:15:05;;;;;;;17.52;9.05;;;;;;;23.88;49.34;100797.28;5563856;32;33371;-57
2023/05/26 10:18:08;;;;;;;11.45;9.05;;;;;;;23.98;50.67;100790.44;5561452;32;33556;-57
2023/05/26 10:21:13;;;;;;;15.98;9.68;;;;;;;23.92;48.60;100794.62;5554859;32;33640;-57
2023/05/26 10:24:32;;;;;;;13.35;9.02;;;;;;;23.94;48.20;100795.06;5563733;32;34426;-57
2023/05/26 10:28:00;;;;;;;15.05;9.05;;;;;;;23.96;48.06;100792.75;5561952;32;34389;-57
2023/05/26 10:31:04;;;;;;;12.88;8.88;;;;;;;24.03;48.29;100792.09;5568450;32;33867;-57
2023/05/26 10:34:14;;;;;;;13.98;8.20;;;;;;;24.12;47.26;100790.72;5565201;32;33707;-57
2023/05/26 10:37:18;;;;;;;17.05;8.38;;;;;;;24.08;46.83;100783.59;5557294;32;34300;-58
2023/05/26 10:40:33;;;;;;;13.13;8.35;;;;;;;24.26;45.50;100792.16;5559057;32;34263;-57
2023/05/26 10:43:36;;;;;;;8.55;7.55;;;;;;;24.21;50.08;100776.81;5558321;32;34211;-57
2023/05/26 10:46:45;;;;;;;11.63;7.53;;;;;;;24.20;46.37;100788.12;5564245;32;33621;-57
2023/05/26 10:49:58;;;;;;;9.70;7.37;;;;;;;24.23;45.90;100779.16;5565511;32;33663;-57
2023/05/26 10:53:01;;;;;;;9.70;7.43;;;;;;;24.20;45.86;100780.69;5559269;32;34175;-56
2023/05/26 10:56:08;;;;;;;10.68;7.30;;;;;;;24.26;45.44;100779.22;5561332;32;33811;-57
2023/05/26 10:59:21;;;;;;;11.77;8.30;;;;;;;24.28;49.40;100770.66;5565707;32;34346;-57
2023/05/26 11:02:24;;;;;;;10.10;7.65;;;;;;;24.28;46.66;100771.44;5567435;31;33196;-57
2023/05/26 11:05:31;;;;;;;11.70;8.00;;;;;;;24.33;46.07;100767.62;5566390;32;33855;-57
2023/05/26 11:08:47;;;;;;;9.20;6.95;;;;;;;24.34;44.91;100770.00;5557975;32;34322;-57
2023/05/26 11:11:54;;;;;;;9.30;7.00;;;;;;;24.30;44.71;100760.91;5555656;32;34016;-57
2023/05/26 11:14:56;;;;;;;8.90;7.05;;;;;;;24.36;44.94;100767.66;5558684;32;33933;-57
2023/05/26 11:18:04;;;;;;;8.93;5.95;;;;;;;24.36;43.22;100762.19;5563979;32;33598;-57
2023/05/26 11:21:07;;;;;;;8.55;6.55;;;;;;;24.48;42.65;100765.97;5556554;32;33268;-57
2023/05/26 11:24:09;;;;;;;8.93;7.18;;;;;;;24.49;42.82;100759.31;5563742;32;33602;-57
2023/05/26 11:27:12;;;;;;;9.25;6.72;;;;;;;24.55;42.87;100755.91;5560464;32;33658;-57
2023/05/26 11:30:15;;;;;;;9.38;7.35;;;;;;;24.59;43.29;100762.22;5557465;32;32982;-57
2023/05/26 11:33:18;;;;;;;9.90;7.70;;;;;;;24.59;42.85;100753.22;5563806;32;33741;-57
2023/05/26 11:36:21;;;;;;;11.15;6.75;;;;;;;24.57;43.36;100748.13;5560670;32;33600;-57
2023/05/26 11:39:34;;;;;;;9.68;7.47;;;;;;;24.62;42.20;100744.25;5564200;32;33706;-57
2023/05/26 11:42:36;;;;;;;12.27;7.25;;;;;;;24.63;42.22;100740.34;5564239;32;34284;-57
2023/05/26 11:45:39;;;;;;;9.88;6.22;;;;;;;24.73;40.69;100731.50;5562893;32;33199;-58
2023/05/26 11:48:43;;;;;;;9.15;6.82;;;;;;;24.74;39.46;100727.63;5562319;31;33632;-57
2023/05/26 11:51:47;;;;;;;9.20;6.65;;;;;;;24.72;40.09;100723.66;5567588;32;33647;-57
2023/05/26 11:54:50;;;;;;;9.27;6.35;;;;;;;24.83;41.21;100721.87;5561684;32;33580;-57
2023/05/26 11:57:52;;;;;;;8.88;6.95;;;;;;;24.98;42.37;100718.19;5566453;32;33651;-57
2023/05/26 12:00:59;;;;;;;12.50;7.72;;;;;;;24.96;40.58;100711.47;5558148;32;33641;-57
2023/05/26 12:04:04;;;;;;;12.27;7.15;;;;;;;24.85;42.34;100714.87;5550449;32;33723;-57
2023/05/26 12:07:06;;;;;;;10.85;7.78;;;;;;;24.96;41.00;100711.47;5548066;32;33208;-57
2023/05/26 12:10:09;;;;;;;10.25;7.50;;;;;;;25.07;40.86;100701.47;5550056;32;34372;-57
2023/05/26 12:13:12;;;;;;;9.23;7.28;;;;;;;25.03;40.49;100701.44;5568133;32;33636;-58
2023/05/26 12:16:20;;;;;;;9.25;6.53;;;;;;;24.98;39.62;100692.72;5567613;32;33385;-57
2023/05/26 12:19:22;;;;;;;9.68;6.93;;;;;;;24.93;41.20;100693.81;5567296;32;33704;-57
2023/05/26 12:22:27;;;;;;;9.60;7.00;;;;;;;25.06;42.18;100683.41;5567932;32;33624;-57
2023/05/26 12:25:30;;;;;;;9.20;6.70;;;;;;;25.15;41.06;100685.94;5568906;32;34225;-57
2023/05/26 12:28:33;;;;;;;11.90;6.62;;;;;;;24.99;41.25;100681.37;5569502;32;33698;-57
2023/05/26 12:31:42;;;;;;;6.80;6.10;;;;;;;24.96;39.64;100673.88;5564729;32;33648;-57
2023/05/26 12:34:45;;;;;;;7.60;6.80;;;;;;;25.15;38.95;100673.00;5564993;32;34478;-57
2023/05/26 12:37:47;;;;;;;8.50;6.25;;;;;;;25.17;39.34;100667.94;5570375;32;34352;-57
2023/05/26 12:40:50;;;;;;;8.68;6.32;;;;;;;25.25;38.70;100660.56;5570041;32;33650;-57
2023/05/26 12:43:53;;;;;;;9.15;6.43;;;;;;;25.23;38.00;100663.72;5570075;32;34195;-57
2023/05/26 12:46:55;;;;;;;12.40;6.28;;;;;;;25.23;38.53;100652.72;5570428;31;33620;-58
2023/05/26 12:49:58;;;;;;;8.98;6.50;;;;;;;25.32;37.24;100649.69;5570508;32;33573;-57
2023/05/26 12:53:00;;;;;;;9.38;7.22;;;;;;;25.20;38.43;100647.19;5570834;32;33676;-57
2023/05/26 12:56:03;;;;;;;11.65;7.30;;;;;;;25.25;40.78;100644.91;5569861;32;33650;-57
2023/05/26 12:59:07;;;;;;;8.68;7.40;;;;;;;25.36;41.99;100636.00;5570418;32;33733;-57
2023/05/26 13:02:22;;;;;;;11.90;7.03;;;;;;;25.42;40.12;100637.25;5570271;32;34193;-58
2023/05/26 13:05:25;;;;;;;14.52;7.10;;;;;;;25.31;40.05;100646.16;5570087;32;34337;-57
2023/05/26 13:08:27;;;;;;;10.07;7.43;;;;;;;25.31;39.67;100637.13;5570276;32;33659;-57
2023/05/26 13:11:29;;;;;;;11.05;8.18;;;;;;;25.32;42.08;100627.72;5570067;32;33646;-57
2023/05/26 13:14:32;;;;;;;10.25;6.93;;;;;;;25.39;41.69;100630.56;5556077;32;33420;-57
2023/05/26 13:17:34;;;;;;;17.58;9.27;;;;;;;25.26;41.03;100626.47;5550596;32;33636;-57
2023/05/26 13:20:37;;;;;;;16.05;9.07;;;;;;;25.19;48.16;100629.16;5550770;32;33606;-57
2023/05/26 13:23:40;;;;;;;13.55;9.52;;;;;;;25.02;49.25;100634.00;5550332;32;34301;-57
2023/05/26 13:26:43;;;;;;;13.30;9.23;;;;;;;24.94;48.87;100631.56;5550548;32;33572;-57
2023/05/26 13:29:46;;;;;;;10.13;9.02;;;;;;;24.83;48.86;100637.69;5550135;32;34174;-57
2023/05/26 13:32:48;;;;;;;12.10;9.70;;;;;;;24.76;49.73;100636.78;5550178;32;33603;-57
2023/05/26 13:35:51;;;;;;;12.05;9.85;;;;;;;24.80;49.64;100632.12;5549736;32;33830;-57
2023/05/26 13:38:53;;;;;;;11.85;9.30;;;;;;;24.76;49.51;100623.06;5550374;32;33705;-57
2023/05/26 13:41:55;;;;;;;23.35;9.65;;;;;;;24.60;50.77;100628.72;5550215;32;34279;-57
2023/05/26 13:44:58;;;;;;;13.38;9.77;;;;;;;24.52;53.34;100627.81;5549942;32;34396;-58
2023/05/26 13:48:00;;;;;;;13.10;9.55;;;;;;;24.47;50.59;100630.91;5550136;32;33707;-57
2023/05/26 13:51:03;;;;;;;15.02;9.40;;;;;;;24.46;50.78;100625.75;5550492;32;34331;-58
2023/05/26 13:54:05;;;;;;;14.80;8.80;;;;;;;24.49;51.32;100623.06;5549783;32;34279;-57
2023/05/26 13:57:07;;;;;;;15.07;9.23;;;;;;;24.55;51.70;100624.34;5549707;32;33830;-58
2023/05/26 14:00:10;;;;;;;15.30;9.73;;;;;;;24.71;51.70;100620.66;5549919;32;33695;-57
2023/05/26 14:03:13;;;;;;;13.75;8.73;;;;;;;24.82;50.00;100616.09;5549979;32;34299;-57
2023/05/26 14:06:16;;;;;;;11.30;8.75;;;;;;;24.96;51.05;100615.50;5550141;32;33801;-57
2023/05/26 14:09:18;;;;;;;18.87;9.00;;;;;;;25.12;49.29;100609.84;5549660;32;33726;-57
2023/05/26 14:12:20;;;;;;;19.77;9.10;;;;;;;25.15;50.12;100606.37;5550080;32;34350;-57
2023/05/26 14:15:22;;;;;;;15.50;9.15;;;;;;;25.29;50.23;100604.56;5549707;32;33565;-58
2023/05/26 14:18:25;;;;;;;14.60;8.98;;;;;;;25.27;50.59;100606.91;5550094;32;33710;-57
2023/05/26 14:21:27;;;;;;;12.52;9.00;;;;;;;25.37;49.87;100607.41;5550062;32;34257;-57
2023/05/26 14:24:50;;;;;;;12.27;8.38;;;;;;;25.39;49.00;100602.31;5550165;32;33665;-57
2023/05/26 14:27:52;;;;;;;11.12;9.55;;;;;;;25.41;49.68;100595.31;5550107;32;33890;-57
2023/05/26 14:30:55;;;;;;;15.68;9.15;;;;;;;25.34;50.44;100606.22;5549800;32;33738;-58
2023/05/26 14:33:57;;;;;;;12.23;9.25;;;;;;;25.31;50.76;100596.75;5549804;32;33758;-57
2023/05/26 14:37:00;;;;;;;11.25;8.65;;;;;;;25.34;51.05;100591.69;5549861;32;33718;-57
2023/05/26 14:40:02;;;;;;;10.95;8.68;;;;;;;25.30;49.21;100594.41;5549661;32;33733;-57
2023/05/26 14:43:05;;;;;;;12.37;9.48;;;;;;;25.25;50.04;100592.00;5549935;32;33756;-57
2023/05/26 14:46:08;;;;;;;12.43;8.70;;;;;;;25.28;49.58;100596.72;5549751;32;34358;-57
2023/05/26 14:49:10;;;;;;;12.45;8.55;;;;;;;25.28;49.28;100592.03;5549327;32;33768;-57
2023/05/26 14:52:12;;;;;;;9.98;8.90;;;;;;;25.26;50.08;100594.34;5549961;32;33419;-57
2023/05/26 14:55:17;;;;;;;12.10;8.98;;;;;;;25.34;48.38;100592.50;5550002;32;33756;-58
